EFW79YW EGKK-LEIB
Flight info
| Callsign | EFW79YW |
|---|---|
| Flight time | N/A |
| Altitude | 35000 |
| Route | SFD Y47 DRAKE L151 SITET UN859 SOPIL DCT BALAN DCT EVPOK DCT NARAK DCT GAI DCT LOMRA DCT ROCAN/N0446F310 DCT PUMAL DCT XEPLA DCT BCN DCT CORDA |
| Aircraft | A320/M-SDE3FGIJ1RWXY/SB1 |
Departure
| Time | 2026-05-08 07:35 |
|---|---|
| Airport | London Gatwick Airport (EGKK) |
Arrival
| Time | N/A |
|---|---|
| Airport | Ibiza Airport (LEIB) |
| Time | Latitude | Longitude | Altitude | Speed | Heading |
|---|---|---|---|---|---|
| 2026-05-08 07:11 | 51.15544 | -0.16537 | 206 ft | 0 kts | 348° |
| 2026-05-08 07:24 | 51.15530 | -0.16533 | 216 ft | 4 kts | 346° |
| 2026-05-08 07:24 | 51.15504 | -0.16524 | 217 ft | 4 kts | 359° |
| 2026-05-08 07:25 | 51.15484 | -0.16526 | 214 ft | 4 kts | 360° |
| 2026-05-08 07:25 | 51.15457 | -0.16520 | 212 ft | 4 kts | 345° |
| 2026-05-08 07:25 | 51.15445 | -0.16515 | 216 ft | 0 kts | 348° |
| 2026-05-08 07:28 | 51.15451 | -0.16517 | 214 ft | 2 kts | 347° |
| 2026-05-08 07:28 | 51.15463 | -0.16550 | 209 ft | 7 kts | 279° |
| 2026-05-08 07:29 | 51.15448 | -0.16668 | 210 ft | 14 kts | 257° |
| 2026-05-08 07:29 | 51.15448 | -0.16829 | 206 ft | 16 kts | 259° |
| 2026-05-08 07:29 | 51.15422 | -0.17010 | 203 ft | 18 kts | 257° |
| 2026-05-08 07:29 | 51.15381 | -0.17217 | 212 ft | 20 kts | 253° |
| 2026-05-08 07:30 | 51.15328 | -0.17371 | 208 ft | 15 kts | 210° |
| 2026-05-08 07:30 | 51.15285 | -0.17546 | 212 ft | 21 kts | 259° |
| 2026-05-08 07:30 | 51.15251 | -0.17801 | 205 ft | 25 kts | 256° |
| 2026-05-08 07:30 | 51.15213 | -0.18083 | 208 ft | 27 kts | 257° |
| 2026-05-08 07:31 | 51.15178 | -0.18383 | 204 ft | 23 kts | 261° |
| 2026-05-08 07:31 | 51.15142 | -0.18643 | 210 ft | 25 kts | 257° |
| 2026-05-08 07:31 | 51.15103 | -0.18929 | 206 ft | 27 kts | 257° |
| 2026-05-08 07:31 | 51.15063 | -0.19214 | 205 ft | 27 kts | 257° |
| 2026-05-08 07:32 | 51.15021 | -0.19514 | 205 ft | 29 kts | 258° |
| 2026-05-08 07:32 | 51.14980 | -0.19815 | 210 ft | 25 kts | 258° |
| 2026-05-08 07:32 | 51.14942 | -0.20097 | 216 ft | 27 kts | 258° |
| 2026-05-08 07:32 | 51.14902 | -0.20391 | 205 ft | 28 kts | 258° |
| 2026-05-08 07:33 | 51.14860 | -0.20695 | 205 ft | 27 kts | 257° |
| 2026-05-08 07:33 | 51.14817 | -0.20997 | 206 ft | 24 kts | 257° |
| 2026-05-08 07:33 | 51.14776 | -0.21230 | 205 ft | 22 kts | 255° |
| 2026-05-08 07:33 | 51.14740 | -0.21394 | 208 ft | 15 kts | 218° |
| 2026-05-08 07:34 | 51.14643 | -0.21342 | 208 ft | 17 kts | 144° |
| 2026-05-08 07:34 | 51.14535 | -0.21262 | 204 ft | 18 kts | 130° |
| 2026-05-08 07:34 | 51.14529 | -0.21091 | 208 ft | 18 kts | 76° |
| 2026-05-08 07:34 | 51.14583 | -0.20706 | 215 ft | 66 kts | 77° |
| 2026-05-08 07:35 | 51.14727 | -0.19663 | 215 ft | 123 kts | 77° |
| 2026-05-08 07:35 | 51.14942 | -0.18104 | 312 ft | 155 kts | 77° |
| 2026-05-08 07:35 | 51.15174 | -0.16439 | 903 ft | 154 kts | 78° |
| 2026-05-08 07:35 | 51.15402 | -0.14756 | 1509 ft | 158 kts | 80° |
| 2026-05-08 07:36 | 51.15647 | -0.12941 | 1845 ft | 179 kts | 81° |
| 2026-05-08 07:36 | 51.15925 | -0.10880 | 2118 ft | 202 kts | 81° |
| 2026-05-08 07:36 | 51.16199 | -0.08553 | 2493 ft | 222 kts | 90° |
| 2026-05-08 07:36 | 51.15761 | -0.06250 | 3221 ft | 223 kts | 130° |
| 2026-05-08 07:37 | 51.14455 | -0.04785 | 3664 ft | 244 kts | 160° |
| 2026-05-08 07:37 | 51.12795 | -0.04052 | 4373 ft | 255 kts | 169° |
| 2026-05-08 07:37 | 51.11025 | -0.03569 | 5250 ft | 260 kts | 171° |
| 2026-05-08 07:37 | 51.09187 | -0.03108 | 5837 ft | 266 kts | 169° |
| 2026-05-08 07:38 | 51.07404 | -0.02493 | 5980 ft | 266 kts | 166° |
| 2026-05-08 07:38 | 51.05610 | -0.01734 | 6387 ft | 268 kts | 164° |
| 2026-05-08 07:38 | 51.03815 | -0.00905 | 7296 ft | 269 kts | 164° |
| 2026-05-08 07:38 | 51.02005 | -0.00046 | 8144 ft | 273 kts | 164° |
| 2026-05-08 07:39 | 51.00173 | 0.00834 | 8961 ft | 277 kts | 165° |
| 2026-05-08 07:39 | 50.98309 | 0.01728 | 9756 ft | 282 kts | 165° |
| 2026-05-08 07:39 | 50.96422 | 0.02629 | 10502 ft | 286 kts | 165° |
| 2026-05-08 07:39 | 50.94506 | 0.03542 | 11235 ft | 289 kts | 165° |
| 2026-05-08 07:40 | 50.93219 | 0.04152 | 11723 ft | 291 kts | 165° |
| 2026-05-08 07:40 | 50.91267 | 0.05071 | 12417 ft | 297 kts | 166° |
| 2026-05-08 07:40 | 50.89160 | 0.05454 | 12595 ft | 316 kts | 183° |
| 2026-05-08 07:40 | 50.86884 | 0.05308 | 12778 ft | 336 kts | 184° |
| 2026-05-08 07:41 | 50.84520 | 0.05132 | 13318 ft | 344 kts | 184° |
| 2026-05-08 07:41 | 50.82113 | 0.04947 | 13979 ft | 348 kts | 184° |
| 2026-05-08 07:41 | 50.79686 | 0.04765 | 14588 ft | 351 kts | 184° |
| 2026-05-08 07:41 | 50.77230 | 0.04588 | 15196 ft | 354 kts | 184° |
| 2026-05-08 07:42 | 50.74765 | 0.04415 | 15817 ft | 356 kts | 184° |
| 2026-05-08 07:42 | 50.72282 | 0.04245 | 16423 ft | 359 kts | 183° |
| 2026-05-08 07:42 | 50.69779 | 0.04073 | 17019 ft | 361 kts | 183° |
| 2026-05-08 07:42 | 50.67259 | 0.03898 | 17671 ft | 364 kts | 183° |
| 2026-05-08 07:43 | 50.64715 | 0.03721 | 18311 ft | 367 kts | 183° |
| 2026-05-08 07:43 | 50.62156 | 0.03547 | 18886 ft | 370 kts | 183° |
| 2026-05-08 07:43 | 50.59573 | 0.03375 | 19440 ft | 373 kts | 183° |
| 2026-05-08 07:43 | 50.56968 | 0.03203 | 19997 ft | 376 kts | 183° |
| 2026-05-08 07:44 | 50.54342 | 0.03031 | 20555 ft | 379 kts | 183° |
| 2026-05-08 07:44 | 50.51693 | 0.02850 | 21092 ft | 383 kts | 183° |
| 2026-05-08 07:44 | 50.49020 | 0.02662 | 21614 ft | 386 kts | 183° |
| 2026-05-08 07:44 | 50.46327 | 0.02473 | 22122 ft | 389 kts | 184° |
| 2026-05-08 07:45 | 50.43617 | 0.02280 | 22621 ft | 392 kts | 184° |
| 2026-05-08 07:45 | 50.40883 | 0.02083 | 23114 ft | 395 kts | 184° |
| 2026-05-08 07:45 | 50.38128 | 0.01892 | 23599 ft | 398 kts | 184° |
| 2026-05-08 07:45 | 50.35354 | 0.01702 | 24020 ft | 400 kts | 184° |
| 2026-05-08 07:46 | 50.32562 | 0.01514 | 24426 ft | 402 kts | 184° |
| 2026-05-08 07:46 | 50.29756 | 0.01325 | 24831 ft | 404 kts | 184° |
| 2026-05-08 07:46 | 50.26936 | 0.01134 | 25224 ft | 406 kts | 184° |
| 2026-05-08 07:46 | 50.24135 | 0.00947 | 25607 ft | 408 kts | 184° |
| 2026-05-08 07:47 | 50.21295 | 0.00757 | 25997 ft | 410 kts | 184° |
| 2026-05-08 07:47 | 50.18429 | 0.00562 | 26381 ft | 412 kts | 184° |
| 2026-05-08 07:47 | 50.15557 | 0.00370 | 26742 ft | 414 kts | 184° |
| 2026-05-08 07:47 | 50.12670 | 0.00173 | 27120 ft | 416 kts | 183° |
| 2026-05-08 07:48 | 50.09766 | 0.00326 | 27487 ft | 420 kts | 174° |
| 2026-05-08 07:48 | 50.06884 | 0.01197 | 27832 ft | 424 kts | 167° |
| 2026-05-08 07:48 | 50.04020 | 0.02337 | 28188 ft | 426 kts | 167° |
| 2026-05-08 07:48 | 50.01140 | 0.03478 | 28535 ft | 428 kts | 167° |
| 2026-05-08 07:49 | 49.98207 | 0.04637 | 28874 ft | 430 kts | 167° |
| 2026-05-08 07:49 | 49.95334 | 0.05773 | 29188 ft | 433 kts | 167° |
| 2026-05-08 07:49 | 49.92410 | 0.06927 | 29525 ft | 435 kts | 167° |
| 2026-05-08 07:49 | 49.89479 | 0.08080 | 29994 ft | 434 kts | 167° |
| 2026-05-08 07:50 | 49.86516 | 0.09238 | 30413 ft | 433 kts | 168° |
| 2026-05-08 07:50 | 49.83590 | 0.10375 | 30757 ft | 434 kts | 168° |
| 2026-05-08 07:50 | 49.80658 | 0.11516 | 31085 ft | 435 kts | 168° |
| 2026-05-08 07:50 | 49.77717 | 0.12663 | 31416 ft | 436 kts | 168° |
| 2026-05-08 07:51 | 49.74768 | 0.13815 | 31740 ft | 438 kts | 168° |
| 2026-05-08 07:51 | 49.71809 | 0.14969 | 32073 ft | 439 kts | 168° |
| 2026-05-08 07:51 | 49.68842 | 0.16122 | 32413 ft | 440 kts | 168° |
| 2026-05-08 07:51 | 49.65865 | 0.17288 | 32719 ft | 443 kts | 168° |
| 2026-05-08 07:52 | 49.62883 | 0.18483 | 33050 ft | 444 kts | 168° |
| 2026-05-08 07:52 | 49.59889 | 0.19701 | 33380 ft | 446 kts | 168° |
| 2026-05-08 07:52 | 49.56887 | 0.20929 | 33726 ft | 447 kts | 168° |
| 2026-05-08 07:52 | 49.53878 | 0.22157 | 34067 ft | 448 kts | 168° |
| 2026-05-08 07:53 | 49.50863 | 0.23377 | 34362 ft | 448 kts | 168° |
| 2026-05-08 07:53 | 49.47883 | 0.24576 | 34658 ft | 448 kts | 168° |
| 2026-05-08 07:53 | 49.44826 | 0.25803 | 34953 ft | 449 kts | 168° |
| 2026-05-08 07:54 | 49.38752 | 0.28223 | 35058 ft | 454 kts | 169° |
| 2026-05-08 07:54 | 49.32646 | 0.30646 | 35054 ft | 456 kts | 169° |
| 2026-05-08 07:55 | 49.26465 | 0.33152 | 35059 ft | 457 kts | 168° |
| 2026-05-08 07:55 | 49.20366 | 0.35747 | 35057 ft | 457 kts | 168° |
| 2026-05-08 07:56 | 49.14242 | 0.38364 | 35060 ft | 458 kts | 168° |
| 2026-05-08 07:56 | 49.08058 | 0.40969 | 35060 ft | 458 kts | 168° |
| 2026-05-08 07:57 | 49.01943 | 0.43521 | 35061 ft | 458 kts | 168° |
| 2026-05-08 07:57 | 48.95755 | 0.46095 | 35057 ft | 459 kts | 168° |
| 2026-05-08 07:58 | 48.89597 | 0.48655 | 35054 ft | 459 kts | 168° |
| 2026-05-08 07:58 | 48.83467 | 0.51189 | 35055 ft | 459 kts | 168° |
| 2026-05-08 07:59 | 48.77303 | 0.53734 | 35048 ft | 459 kts | 169° |
| 2026-05-08 07:59 | 48.71117 | 0.56190 | 35045 ft | 459 kts | 169° |
| 2026-05-08 08:00 | 48.64928 | 0.58584 | 35045 ft | 460 kts | 169° |
| 2026-05-08 08:00 | 48.58722 | 0.60988 | 35040 ft | 460 kts | 169° |
| 2026-05-08 08:01 | 48.52505 | 0.63411 | 35037 ft | 461 kts | 169° |
| 2026-05-08 08:01 | 48.46300 | 0.65892 | 35035 ft | 462 kts | 169° |
| 2026-05-08 08:02 | 48.40093 | 0.68445 | 35038 ft | 463 kts | 168° |
| 2026-05-08 08:02 | 48.33873 | 0.70999 | 35044 ft | 463 kts | 169° |
| 2026-05-08 08:03 | 48.27650 | 0.73521 | 35030 ft | 463 kts | 169° |
| 2026-05-08 08:03 | 48.21425 | 0.76005 | 35041 ft | 464 kts | 169° |
| 2026-05-08 08:04 | 48.15174 | 0.78448 | 35030 ft | 464 kts | 169° |
| 2026-05-08 08:04 | 48.08921 | 0.80884 | 35027 ft | 464 kts | 169° |
| 2026-05-08 08:05 | 48.02667 | 0.83343 | 35033 ft | 465 kts | 169° |
| 2026-05-08 08:05 | 47.96406 | 0.85795 | 35031 ft | 465 kts | 169° |
| 2026-05-08 08:06 | 47.90141 | 0.88238 | 35031 ft | 465 kts | 169° |
| 2026-05-08 08:06 | 47.83872 | 0.90675 | 35023 ft | 466 kts | 169° |
| 2026-05-08 08:07 | 47.77605 | 0.93099 | 35024 ft | 466 kts | 169° |
| 2026-05-08 08:07 | 47.71322 | 0.95516 | 35019 ft | 466 kts | 169° |
| 2026-05-08 08:08 | 47.65038 | 0.97934 | 35021 ft | 467 kts | 169° |
| 2026-05-08 08:08 | 47.58754 | 1.00364 | 35022 ft | 467 kts | 169° |
| 2026-05-08 08:09 | 47.52471 | 1.02775 | 35025 ft | 467 kts | 169° |
| 2026-05-08 08:09 | 47.46171 | 1.05177 | 35027 ft | 467 kts | 169° |
| 2026-05-08 08:10 | 47.39798 | 1.06389 | 35027 ft | 458 kts | 185° |
| 2026-05-08 08:10 | 47.33426 | 1.06221 | 35021 ft | 458 kts | 185° |
| 2026-05-08 08:11 | 47.27045 | 1.06058 | 35019 ft | 459 kts | 185° |
| 2026-05-08 08:11 | 47.20651 | 1.05919 | 35012 ft | 459 kts | 185° |
| 2026-05-08 08:12 | 47.14263 | 1.05779 | 35003 ft | 459 kts | 185° |
| 2026-05-08 08:12 | 47.07874 | 1.05625 | 35001 ft | 459 kts | 185° |
| 2026-05-08 08:13 | 47.01483 | 1.05470 | 34998 ft | 459 kts | 186° |
| 2026-05-08 08:13 | 46.95098 | 1.05224 | 34995 ft | 459 kts | 186° |
| 2026-05-08 08:14 | 46.88712 | 1.04914 | 34993 ft | 459 kts | 186° |
| 2026-05-08 08:14 | 46.82322 | 1.04625 | 34993 ft | 459 kts | 186° |
| 2026-05-08 08:15 | 46.75921 | 1.04358 | 34990 ft | 460 kts | 186° |
| 2026-05-08 08:15 | 46.69520 | 1.04093 | 34992 ft | 460 kts | 186° |
| 2026-05-08 08:16 | 46.63117 | 1.03828 | 34990 ft | 461 kts | 186° |
| 2026-05-08 08:16 | 46.56706 | 1.03549 | 34991 ft | 461 kts | 186° |
| 2026-05-08 08:17 | 46.50272 | 1.03827 | 34988 ft | 468 kts | 174° |
| 2026-05-08 08:17 | 46.44961 | 1.05560 | 34990 ft | 471 kts | 171° |
| 2026-05-08 08:18 | 46.38574 | 1.07718 | 34993 ft | 471 kts | 171° |
| 2026-05-08 08:18 | 46.31133 | 1.10185 | 34995 ft | 472 kts | 171° |
| 2026-05-08 08:19 | 46.25774 | 1.11962 | 34997 ft | 472 kts | 171° |
| 2026-05-08 08:19 | 46.19368 | 1.14088 | 35000 ft | 472 kts | 171° |
| 2026-05-08 08:20 | 46.12956 | 1.16209 | 35006 ft | 473 kts | 171° |
| 2026-05-08 08:20 | 46.06540 | 1.18330 | 35007 ft | 473 kts | 171° |
| 2026-05-08 08:21 | 46.00118 | 1.20443 | 35007 ft | 473 kts | 171° |
| 2026-05-08 08:21 | 45.93695 | 1.22554 | 35010 ft | 474 kts | 171° |
| 2026-05-08 08:22 | 45.87261 | 1.24670 | 35009 ft | 474 kts | 171° |
| 2026-05-08 08:22 | 45.80830 | 1.26778 | 35012 ft | 474 kts | 172° |
| 2026-05-08 08:23 | 45.74395 | 1.28881 | 35009 ft | 474 kts | 172° |
| 2026-05-08 08:23 | 45.67957 | 1.30975 | 35007 ft | 474 kts | 172° |
| 2026-05-08 08:24 | 45.61515 | 1.33057 | 35008 ft | 475 kts | 172° |
| 2026-05-08 08:24 | 45.55074 | 1.35146 | 35003 ft | 475 kts | 172° |
| 2026-05-08 08:25 | 45.48634 | 1.37237 | 35003 ft | 475 kts | 172° |
| 2026-05-08 08:25 | 45.42198 | 1.39309 | 35002 ft | 474 kts | 172° |
| 2026-05-08 08:26 | 45.35756 | 1.41384 | 35005 ft | 474 kts | 172° |
| 2026-05-08 08:26 | 45.29320 | 1.43447 | 35011 ft | 474 kts | 172° |
| 2026-05-08 08:27 | 45.22879 | 1.45505 | 35013 ft | 474 kts | 172° |
| 2026-05-08 08:27 | 45.16440 | 1.47563 | 35013 ft | 474 kts | 172° |
| 2026-05-08 08:28 | 45.09999 | 1.49622 | 35008 ft | 474 kts | 172° |
| 2026-05-08 08:28 | 45.03560 | 1.51673 | 35009 ft | 474 kts | 172° |
| 2026-05-08 08:29 | 44.97125 | 1.53725 | 35011 ft | 474 kts | 172° |
| 2026-05-08 08:29 | 44.90690 | 1.55757 | 35008 ft | 474 kts | 173° |
| 2026-05-08 08:30 | 44.84259 | 1.57775 | 35008 ft | 473 kts | 173° |
| 2026-05-08 08:30 | 44.74632 | 1.60808 | 35002 ft | 473 kts | 173° |
| 2026-05-08 08:31 | 44.68217 | 1.62826 | 34996 ft | 472 kts | 173° |
| 2026-05-08 08:31 | 44.61807 | 1.64838 | 34998 ft | 472 kts | 173° |
| 2026-05-08 08:32 | 44.55402 | 1.66842 | 34995 ft | 471 kts | 173° |
| 2026-05-08 08:32 | 44.49001 | 1.68841 | 34997 ft | 471 kts | 173° |
| 2026-05-08 08:33 | 44.42607 | 1.70834 | 34995 ft | 470 kts | 173° |
| 2026-05-08 08:33 | 44.36221 | 1.72818 | 35002 ft | 470 kts | 173° |
| 2026-05-08 08:34 | 44.29841 | 1.74798 | 35006 ft | 469 kts | 173° |
| 2026-05-08 08:34 | 44.23461 | 1.76464 | 35004 ft | 465 kts | 177° |
| 2026-05-08 08:35 | 44.17073 | 1.77757 | 35014 ft | 463 kts | 178° |
| 2026-05-08 08:35 | 44.10690 | 1.79032 | 35005 ft | 463 kts | 177° |
| 2026-05-08 08:36 | 44.04329 | 1.80407 | 34997 ft | 462 kts | 177° |
| 2026-05-08 08:36 | 43.97991 | 1.81832 | 34999 ft | 461 kts | 177° |
| 2026-05-08 08:37 | 43.91651 | 1.83033 | 34996 ft | 457 kts | 181° |
| 2026-05-08 08:37 | 43.85346 | 1.83604 | 34999 ft | 453 kts | 184° |
| 2026-05-08 08:38 | 43.79057 | 1.84022 | 35002 ft | 452 kts | 183° |
| 2026-05-08 08:38 | 43.72799 | 1.84554 | 34981 ft | 449 kts | 182° |
| 2026-05-08 08:39 | 43.66561 | 1.85186 | 34979 ft | 448 kts | 182° |
| 2026-05-08 08:39 | 43.60350 | 1.85818 | 34980 ft | 447 kts | 182° |
| 2026-05-08 08:40 | 43.54146 | 1.86418 | 34982 ft | 446 kts | 182° |
| 2026-05-08 08:40 | 43.47960 | 1.87011 | 34979 ft | 446 kts | 182° |
| 2026-05-08 08:41 | 43.41764 | 1.87602 | 34977 ft | 446 kts | 182° |
| 2026-05-08 08:41 | 43.35587 | 1.88194 | 34985 ft | 445 kts | 182° |
| 2026-05-08 08:42 | 43.29408 | 1.88787 | 34987 ft | 445 kts | 182° |
| 2026-05-08 08:42 | 43.23232 | 1.89374 | 34990 ft | 444 kts | 182° |
| 2026-05-08 08:43 | 43.17070 | 1.89966 | 34993 ft | 443 kts | 182° |
| 2026-05-08 08:43 | 43.10924 | 1.90550 | 34992 ft | 443 kts | 182° |
| 2026-05-08 08:44 | 43.04770 | 1.91132 | 34984 ft | 443 kts | 182° |
| 2026-05-08 08:44 | 42.98629 | 1.91717 | 34979 ft | 442 kts | 182° |
| 2026-05-08 08:45 | 42.92498 | 1.92296 | 34976 ft | 442 kts | 182° |
| 2026-05-08 08:45 | 42.86361 | 1.92874 | 34979 ft | 441 kts | 182° |
| 2026-05-08 08:46 | 42.80243 | 1.93454 | 34978 ft | 440 kts | 182° |
| 2026-05-08 08:46 | 42.74134 | 1.94030 | 34984 ft | 440 kts | 182° |
| 2026-05-08 08:47 | 42.68037 | 1.94603 | 34994 ft | 439 kts | 182° |
| 2026-05-08 08:47 | 42.61956 | 1.95525 | 34991 ft | 442 kts | 178° |
| 2026-05-08 08:48 | 42.55878 | 1.96869 | 34997 ft | 442 kts | 177° |
| 2026-05-08 08:48 | 42.49809 | 1.98222 | 35001 ft | 441 kts | 178° |
| 2026-05-08 08:49 | 42.43747 | 1.99466 | 35002 ft | 440 kts | 178° |
| 2026-05-08 08:49 | 42.37696 | 2.00659 | 35006 ft | 439 kts | 178° |
| 2026-05-08 08:50 | 42.31654 | 2.01550 | 35009 ft | 435 kts | 182° |
| 2026-05-08 08:50 | 42.25633 | 2.02023 | 35012 ft | 433 kts | 184° |
| 2026-05-08 08:51 | 42.19583 | 2.02469 | 35014 ft | 432 kts | 183° |
| 2026-05-08 08:51 | 42.13577 | 2.03003 | 35015 ft | 432 kts | 182° |
| 2026-05-08 08:52 | 42.07586 | 2.03594 | 35017 ft | 432 kts | 182° |
| 2026-05-08 08:52 | 42.01602 | 2.04176 | 35019 ft | 431 kts | 182° |
| 2026-05-08 08:53 | 41.95627 | 2.04745 | 35017 ft | 430 kts | 182° |
| 2026-05-08 08:53 | 41.89695 | 2.05301 | 35019 ft | 429 kts | 182° |
| 2026-05-08 08:54 | 41.84710 | 2.05759 | 35021 ft | 429 kts | 182° |
| 2026-05-08 08:54 | 41.78760 | 2.06316 | 35029 ft | 428 kts | 182° |
| 2026-05-08 08:55 | 41.72813 | 2.06881 | 35033 ft | 428 kts | 182° |
| 2026-05-08 08:55 | 41.66877 | 2.07432 | 35028 ft | 428 kts | 182° |
| 2026-05-08 08:56 | 41.60936 | 2.07989 | 35031 ft | 428 kts | 182° |
| 2026-05-08 08:56 | 41.54987 | 2.08549 | 35040 ft | 428 kts | 182° |
| 2026-05-08 08:57 | 41.49041 | 2.09089 | 35037 ft | 428 kts | 182° |
| 2026-05-08 08:57 | 41.43099 | 2.09633 | 35050 ft | 428 kts | 182° |
| 2026-05-08 08:58 | 41.37150 | 2.10193 | 35048 ft | 428 kts | 182° |
| 2026-05-08 08:58 | 41.31207 | 2.10739 | 35048 ft | 428 kts | 182° |
| 2026-05-08 08:59 | 41.25259 | 2.11528 | 35045 ft | 430 kts | 179° |
| 2026-05-08 08:59 | 41.19322 | 2.12617 | 35046 ft | 431 kts | 178° |
| 2026-05-08 09:00 | 41.13391 | 2.13699 | 35043 ft | 429 kts | 179° |
| 2026-05-08 09:00 | 41.07468 | 2.14701 | 35047 ft | 429 kts | 179° |
| 2026-05-08 09:01 | 41.01553 | 2.15680 | 35051 ft | 428 kts | 179° |
| 2026-05-08 09:01 | 40.95640 | 2.16657 | 35053 ft | 427 kts | 179° |
| 2026-05-08 09:02 | 40.89743 | 2.17633 | 35052 ft | 427 kts | 179° |
| 2026-05-08 09:02 | 40.83857 | 2.18611 | 35052 ft | 426 kts | 179° |
| 2026-05-08 09:03 | 40.77979 | 2.19582 | 35056 ft | 425 kts | 179° |
| 2026-05-08 09:03 | 40.72116 | 2.20550 | 35052 ft | 425 kts | 179° |
| 2026-05-08 09:04 | 40.66246 | 2.21530 | 35051 ft | 424 kts | 179° |
| 2026-05-08 09:04 | 40.60396 | 2.22492 | 35048 ft | 424 kts | 180° |
| 2026-05-08 09:05 | 40.54539 | 2.23446 | 35046 ft | 423 kts | 180° |
| 2026-05-08 09:05 | 40.48694 | 2.24406 | 35045 ft | 423 kts | 180° |
| 2026-05-08 09:06 | 40.42856 | 2.25367 | 35043 ft | 423 kts | 180° |
| 2026-05-08 09:06 | 40.37023 | 2.26561 | 35042 ft | 425 kts | 176° |
| 2026-05-08 09:07 | 40.31220 | 2.28151 | 35041 ft | 426 kts | 175° |
| 2026-05-08 09:07 | 40.25432 | 2.29767 | 35040 ft | 425 kts | 175° |
| 2026-05-08 09:08 | 40.19633 | 2.31289 | 35037 ft | 424 kts | 176° |
| 2026-05-08 09:08 | 40.13846 | 2.32754 | 35037 ft | 423 kts | 176° |
| 2026-05-08 09:09 | 40.08066 | 2.34238 | 35035 ft | 423 kts | 175° |
| 2026-05-08 09:09 | 40.02291 | 2.35728 | 35030 ft | 423 kts | 175° |
| 2026-05-08 09:10 | 39.96509 | 2.37201 | 35027 ft | 423 kts | 176° |
| 2026-05-08 09:10 | 39.90739 | 2.38674 | 35021 ft | 423 kts | 176° |
| 2026-05-08 09:11 | 39.84960 | 2.40151 | 35022 ft | 423 kts | 176° |
| 2026-05-08 09:11 | 39.79186 | 2.41629 | 35019 ft | 423 kts | 176° |
| 2026-05-08 09:12 | 39.73418 | 2.42390 | 35021 ft | 410 kts | 190° |
| 2026-05-08 09:12 | 39.67784 | 2.41558 | 35025 ft | 407 kts | 193° |
| 2026-05-08 09:13 | 39.62153 | 2.40685 | 35026 ft | 407 kts | 193° |
| 2026-05-08 09:13 | 39.56568 | 2.39580 | 35025 ft | 401 kts | 201° |
| 2026-05-08 09:14 | 39.51622 | 2.36538 | 34714 ft | 392 kts | 218° |
| 2026-05-08 09:14 | 39.49386 | 2.34475 | 33855 ft | 396 kts | 218° |
| 2026-05-08 09:14 | 39.47150 | 2.32375 | 33019 ft | 399 kts | 218° |
| 2026-05-08 09:15 | 39.44905 | 2.30257 | 32237 ft | 400 kts | 218° |
| 2026-05-08 09:15 | 39.42660 | 2.28145 | 31739 ft | 395 kts | 218° |
| 2026-05-08 09:15 | 39.40452 | 2.26079 | 31249 ft | 390 kts | 218° |
| 2026-05-08 09:15 | 39.38258 | 2.24036 | 30753 ft | 386 kts | 218° |
| 2026-05-08 09:16 | 39.36092 | 2.22025 | 30252 ft | 383 kts | 218° |
| 2026-05-08 09:16 | 39.33940 | 2.20029 | 29721 ft | 379 kts | 218° |
| 2026-05-08 09:16 | 39.31808 | 2.18052 | 29221 ft | 374 kts | 218° |
| 2026-05-08 09:16 | 39.29702 | 2.16102 | 28729 ft | 370 kts | 218° |
| 2026-05-08 09:17 | 39.27626 | 2.14182 | 28259 ft | 366 kts | 218° |
| 2026-05-08 09:17 | 39.25568 | 2.12276 | 27786 ft | 362 kts | 218° |